sensor_id;sensor_type;location;lat;lon;timestamp;P1;durP1;ratioP1;P2;durP2;ratioP2
12348;SDS011;5974;42.710;27.258;2023-03-24T00:01:12;22.43;;;15.13;;
12348;SDS011;5974;42.710;27.258;2023-03-24T00:03:39;23.10;;;15.50;;
12348;SDS011;5974;42.710;27.258;2023-03-24T00:06:10;25.43;;;15.93;;
12348;SDS011;5974;42.710;27.258;2023-03-24T00:08:38;28.03;;;16.20;;
12348;SDS011;5974;42.710;27.258;2023-03-24T00:11:10;26.90;;;15.83;;
12348;SDS011;5974;42.710;27.258;2023-03-24T00:13:39;23.83;;;15.53;;
12348;SDS011;5974;42.710;27.258;2023-03-24T00:16:07;22.90;;;13.80;;
12348;SDS011;5974;42.710;27.258;2023-03-24T00:18:36;24.47;;;15.73;;
12348;SDS011;5974;42.710;27.258;2023-03-24T00:21:05;26.80;;;16.10;;
12348;SDS011;5974;42.710;27.258;2023-03-24T00:23:35;21.77;;;16.03;;
12348;SDS011;5974;42.710;27.258;2023-03-24T00:26:03;21.83;;;14.87;;
12348;SDS011;5974;42.710;27.258;2023-03-24T00:28:34;18.93;;;13.53;;
12348;SDS011;5974;42.710;27.258;2023-03-24T00:31:03;19.93;;;14.70;;
12348;SDS011;5974;42.710;27.258;2023-03-24T00:33:32;25.77;;;15.80;;
12348;SDS011;5974;42.710;27.258;2023-03-24T00:36:00;22.17;;;14.90;;
12348;SDS011;5974;42.710;27.258;2023-03-24T00:38:29;22.10;;;14.30;;
12348;SDS011;5974;42.710;27.258;2023-03-24T00:40:58;20.87;;;14.40;;
12348;SDS011;5974;42.710;27.258;2023-03-24T00:43:27;16.87;;;13.53;;
12348;SDS011;5974;42.710;27.258;2023-03-24T00:45:58;21.23;;;15.33;;
12348;SDS011;5974;42.710;27.258;2023-03-24T00:48:26;21.43;;;13.60;;
12348;SDS011;5974;42.710;27.258;2023-03-24T00:50:56;18.97;;;13.63;;
12348;SDS011;5974;42.710;27.258;2023-03-24T00:53:27;19.90;;;13.40;;
12348;SDS011;5974;42.710;27.258;2023-03-24T00:55:54;21.47;;;13.97;;
12348;SDS011;5974;42.710;27.258;2023-03-24T00:58:22;22.00;;;13.80;;
12348;SDS011;5974;42.710;27.258;2023-03-24T01:00:51;19.90;;;13.27;;
12348;SDS011;5974;42.710;27.258;2023-03-24T01:03:21;20.03;;;13.67;;
12348;SDS011;5974;42.710;27.258;2023-03-24T01:05:51;21.07;;;13.60;;
12348;SDS011;5974;42.710;27.258;2023-03-24T01:08:21;21.03;;;13.93;;
12348;SDS011;5974;42.710;27.258;2023-03-24T01:10:50;19.73;;;13.90;;
12348;SDS011;5974;42.710;27.258;2023-03-24T01:13:18;23.03;;;13.53;;
12348;SDS011;5974;42.710;27.258;2023-03-24T01:15:45;21.47;;;13.97;;
12348;SDS011;5974;42.710;27.258;2023-03-24T01:18:13;21.33;;;14.30;;
12348;SDS011;5974;42.710;27.258;2023-03-24T01:20:42;21.10;;;14.40;;
12348;SDS011;5974;42.710;27.258;2023-03-24T01:23:11;22.00;;;14.43;;
12348;SDS011;5974;42.710;27.258;2023-03-24T01:25:39;21.13;;;14.90;;
12348;SDS011;5974;42.710;27.258;2023-03-24T01:28:09;21.00;;;14.53;;
12348;SDS011;5974;42.710;27.258;2023-03-24T01:30:36;24.77;;;15.40;;
12348;SDS011;5974;42.710;27.258;2023-03-24T01:33:04;25.17;;;15.63;;
12348;SDS011;5974;42.710;27.258;2023-03-24T01:35:31;20.40;;;13.67;;
12348;SDS011;5974;42.710;27.258;2023-03-24T01:38:01;18.20;;;13.43;;
12348;SDS011;5974;42.710;27.258;2023-03-24T01:40:31;18.40;;;12.90;;
12348;SDS011;5974;42.710;27.258;2023-03-24T01:42:59;19.33;;;13.30;;
12348;SDS011;5974;42.710;27.258;2023-03-24T01:45:38;19.83;;;13.70;;
12348;SDS011;5974;42.710;27.258;2023-03-24T01:48:10;21.63;;;13.30;;
12348;SDS011;5974;42.710;27.258;2023-03-24T01:50:41;19.97;;;13.60;;
12348;SDS011;5974;42.710;27.258;2023-03-24T01:53:12;19.63;;;13.93;;
12348;SDS011;5974;42.710;27.258;2023-03-24T01:55:39;20.97;;;14.67;;
12348;SDS011;5974;42.710;27.258;2023-03-24T01:58:09;25.40;;;14.83;;
12348;SDS011;5974;42.710;27.258;2023-03-24T02:00:36;23.80;;;14.50;;
12348;SDS011;5974;42.710;27.258;2023-03-24T02:03:06;20.23;;;13.77;;
12348;SDS011;5974;42.710;27.258;2023-03-24T02:05:36;18.43;;;13.57;;
12348;SDS011;5974;42.710;27.258;2023-03-24T02:08:08;21.10;;;14.57;;
12348;SDS011;5974;42.710;27.258;2023-03-24T02:10:40;20.50;;;14.37;;
12348;SDS011;5974;42.710;27.258;2023-03-24T02:13:09;22.70;;;14.17;;
12348;SDS011;5974;42.710;27.258;2023-03-24T02:15:38;20.17;;;13.47;;
12348;SDS011;5974;42.710;27.258;2023-03-24T02:18:12;26.10;;;15.30;;
12348;SDS011;5974;42.710;27.258;2023-03-24T02:20:55;23.30;;;14.27;;
12348;SDS011;5974;42.710;27.258;2023-03-24T02:23:54;18.87;;;14.10;;
12348;SDS011;5974;42.710;27.258;2023-03-24T02:26:46;24.33;;;14.13;;
12348;SDS011;5974;42.710;27.258;2023-03-24T02:29:26;19.37;;;12.93;;
12348;SDS011;5974;42.710;27.258;2023-03-24T02:32:17;20.23;;;13.43;;
12348;SDS011;5974;42.710;27.258;2023-03-24T02:35:09;20.37;;;13.13;;
12348;SDS011;5974;42.710;27.258;2023-03-24T02:37:58;24.17;;;13.27;;
12348;SDS011;5974;42.710;27.258;2023-03-24T02:41:03;21.47;;;13.60;;
12348;SDS011;5974;42.710;27.258;2023-03-24T02:43:38;17.67;;;13.23;;
12348;SDS011;5974;42.710;27.258;2023-03-24T02:46:14;22.30;;;14.57;;
12348;SDS011;5974;42.710;27.258;2023-03-24T02:48:52;20.60;;;14.17;;
12348;SDS011;5974;42.710;27.258;2023-03-24T02:51:30;24.53;;;14.87;;
12348;SDS011;5974;42.710;27.258;2023-03-24T02:54:02;22.87;;;15.10;;
12348;SDS011;5974;42.710;27.258;2023-03-24T02:56:37;23.03;;;14.70;;
12348;SDS011;5974;42.710;27.258;2023-03-24T02:59:06;21.20;;;14.13;;
12348;SDS011;5974;42.710;27.258;2023-03-24T03:01:36;24.43;;;15.20;;
12348;SDS011;5974;42.710;27.258;2023-03-24T03:04:08;20.40;;;14.13;;
12348;SDS011;5974;42.710;27.258;2023-03-24T03:06:39;20.17;;;14.30;;
12348;SDS011;5974;42.710;27.258;2023-03-24T03:09:10;26.00;;;15.20;;
12348;SDS011;5974;42.710;27.258;2023-03-24T03:11:41;23.07;;;14.97;;
12348;SDS011;5974;42.710;27.258;2023-03-24T03:14:13;29.37;;;16.27;;
12348;SDS011;5974;42.710;27.258;2023-03-24T03:16:45;32.73;;;16.40;;
12348;SDS011;5974;42.710;27.258;2023-03-24T03:19:18;42.07;;;16.97;;
12348;SDS011;5974;42.710;27.258;2023-03-24T03:21:47;40.20;;;18.00;;
12348;SDS011;5974;42.710;27.258;2023-03-24T03:24:16;111.50;;;20.47;;
12348;SDS011;5974;42.710;27.258;2023-03-24T03:26:54;52.40;;;18.20;;
12348;SDS011;5974;42.710;27.258;2023-03-24T03:29:27;41.80;;;18.50;;
12348;SDS011;5974;42.710;27.258;2023-03-24T03:31:58;30.87;;;17.50;;
12348;SDS011;5974;42.710;27.258;2023-03-24T03:34:33;27.73;;;16.70;;
12348;SDS011;5974;42.710;27.258;2023-03-24T03:37:05;26.40;;;16.37;;
12348;SDS011;5974;42.710;27.258;2023-03-24T03:39:36;25.63;;;16.47;;
12348;SDS011;5974;42.710;27.258;2023-03-24T03:42:09;25.87;;;16.10;;
12348;SDS011;5974;42.710;27.258;2023-03-24T03:44:36;24.23;;;16.03;;
12348;SDS011;5974;42.710;27.258;2023-03-24T03:47:03;26.83;;;17.20;;
12348;SDS011;5974;42.710;27.258;2023-03-24T03:49:30;30.90;;;17.30;;
12348;SDS011;5974;42.710;27.258;2023-03-24T03:51:57;30.33;;;16.47;;
12348;SDS011;5974;42.710;27.258;2023-03-24T03:54:25;61.13;;;18.07;;
12348;SDS011;5974;42.710;27.258;2023-03-24T03:56:56;36.00;;;16.60;;
12348;SDS011;5974;42.710;27.258;2023-03-24T03:59:26;23.80;;;15.83;;
12348;SDS011;5974;42.710;27.258;2023-03-24T04:01:55;23.33;;;16.10;;
12348;SDS011;5974;42.710;27.258;2023-03-24T04:04:32;23.30;;;15.53;;
12348;SDS011;5974;42.710;27.258;2023-03-24T04:07:14;23.67;;;16.03;;
12348;SDS011;5974;42.710;27.258;2023-03-24T04:09:52;21.67;;;15.13;;
12348;SDS011;5974;42.710;27.258;2023-03-24T04:12:37;23.00;;;15.90;;
12348;SDS011;5974;42.710;27.258;2023-03-24T04:15:17;22.07;;;16.70;;
12348;SDS011;5974;42.710;27.258;2023-03-24T04:17:59;18.40;;;14.00;;
12348;SDS011;5974;42.710;27.258;2023-03-24T04:20:36;20.57;;;14.67;;
12348;SDS011;5974;42.710;27.258;2023-03-24T04:23:13;21.37;;;15.23;;
12348;SDS011;5974;42.710;27.258;2023-03-24T04:26:01;22.63;;;15.53;;
12348;SDS011;5974;42.710;27.258;2023-03-24T04:28:41;25.97;;;15.90;;
12348;SDS011;5974;42.710;27.258;2023-03-24T04:31:19;25.53;;;17.00;;
12348;SDS011;5974;42.710;27.258;2023-03-24T04:33:50;28.30;;;17.37;;
12348;SDS011;5974;42.710;27.258;2023-03-24T04:36:28;24.97;;;16.73;;
12348;SDS011;5974;42.710;27.258;2023-03-24T04:39:06;23.60;;;14.73;;
12348;SDS011;5974;42.710;27.258;2023-03-24T04:41:37;19.80;;;14.53;;
12348;SDS011;5974;42.710;27.258;2023-03-24T04:44:07;21.87;;;16.13;;
12348;SDS011;5974;42.710;27.258;2023-03-24T04:46:37;20.47;;;15.17;;
12348;SDS011;5974;42.710;27.258;2023-03-24T04:49:04;19.20;;;14.63;;
12348;SDS011;5974;42.710;27.258;2023-03-24T04:51:32;21.97;;;15.23;;
12348;SDS011;5974;42.710;27.258;2023-03-24T04:53:59;19.33;;;14.93;;
12348;SDS011;5974;42.710;27.258;2023-03-24T04:56:29;23.63;;;14.93;;
12348;SDS011;5974;42.710;27.258;2023-03-24T04:59:02;18.00;;;14.37;;
12348;SDS011;5974;42.710;27.258;2023-03-24T05:01:29;15.93;;;13.40;;
12348;SDS011;5974;42.710;27.258;2023-03-24T05:03:58;15.07;;;12.17;;
12348;SDS011;5974;42.710;27.258;2023-03-24T05:06:25;14.90;;;12.57;;
12348;SDS011;5974;42.710;27.258;2023-03-24T05:08:52;14.40;;;12.67;;
12348;SDS011;5974;42.710;27.258;2023-03-24T05:11:20;13.57;;;11.60;;
12348;SDS011;5974;42.710;27.258;2023-03-24T05:13:47;15.57;;;12.10;;
12348;SDS011;5974;42.710;27.258;2023-03-24T05:16:14;14.87;;;11.97;;
12348;SDS011;5974;42.710;27.258;2023-03-24T05:18:41;14.23;;;11.90;;
12348;SDS011;5974;42.710;27.258;2023-03-24T05:21:09;16.40;;;12.50;;
12348;SDS011;5974;42.710;27.258;2023-03-24T05:23:36;14.17;;;12.33;;
12348;SDS011;5974;42.710;27.258;2023-03-24T05:26:03;15.37;;;13.30;;
12348;SDS011;5974;42.710;27.258;2023-03-24T05:28:31;29.50;;;23.37;;
12348;SDS011;5974;42.710;27.258;2023-03-24T05:30:58;43.10;;;27.10;;
12348;SDS011;5974;42.710;27.258;2023-03-24T05:33:25;43.13;;;29.07;;
12348;SDS011;5974;42.710;27.258;2023-03-24T05:35:52;30.20;;;22.50;;
12348;SDS011;5974;42.710;27.258;2023-03-24T05:38:20;25.07;;;21.00;;
12348;SDS011;5974;42.710;27.258;2023-03-24T05:40:47;31.10;;;24.53;;
12348;SDS011;5974;42.710;27.258;2023-03-24T05:43:14;24.93;;;22.03;;
12348;SDS011;5974;42.710;27.258;2023-03-24T05:45:41;18.33;;;16.47;;
12348;SDS011;5974;42.710;27.258;2023-03-24T05:48:08;21.03;;;17.37;;
12348;SDS011;5974;42.710;27.258;2023-03-24T05:50:35;19.20;;;16.47;;
12348;SDS011;5974;42.710;27.258;2023-03-24T05:53:02;19.07;;;16.77;;
12348;SDS011;5974;42.710;27.258;2023-03-24T05:55:30;18.70;;;16.70;;
12348;SDS011;5974;42.710;27.258;2023-03-24T05:57:57;24.10;;;15.93;;
12348;SDS011;5974;42.710;27.258;2023-03-24T06:00:26;18.60;;;16.70;;
12348;SDS011;5974;42.710;27.258;2023-03-24T06:02:54;19.23;;;17.43;;
12348;SDS011;5974;42.710;27.258;2023-03-24T06:05:21;20.03;;;18.03;;
12348;SDS011;5974;42.710;27.258;2023-03-24T06:07:48;22.43;;;20.23;;
12348;SDS011;5974;42.710;27.258;2023-03-24T06:10:15;25.33;;;23.07;;
12348;SDS011;5974;42.710;27.258;2023-03-24T06:12:44;21.77;;;19.67;;
12348;SDS011;5974;42.710;27.258;2023-03-24T06:15:13;23.33;;;20.77;;
12348;SDS011;5974;42.710;27.258;2023-03-24T06:17:41;29.03;;;26.03;;
12348;SDS011;5974;42.710;27.258;2023-03-24T06:20:10;32.03;;;24.70;;
12348;SDS011;5974;42.710;27.258;2023-03-24T06:22:40;30.63;;;26.47;;
12348;SDS011;5974;42.710;27.258;2023-03-24T06:25:08;31.77;;;25.37;;
12348;SDS011;5974;42.710;27.258;2023-03-24T06:27:35;28.13;;;24.13;;
12348;SDS011;5974;42.710;27.258;2023-03-24T06:30:04;25.30;;;21.33;;
12348;SDS011;5974;42.710;27.258;2023-03-24T06:32:32;22.40;;;18.87;;
12348;SDS011;5974;42.710;27.258;2023-03-24T06:35:00;22.63;;;20.33;;
12348;SDS011;5974;42.710;27.258;2023-03-24T06:37:26;15.00;;;13.50;;
12348;SDS011;5974;42.710;27.258;2023-03-24T06:39:53;15.23;;;13.67;;
12348;SDS011;5974;42.710;27.258;2023-03-24T06:42:20;17.90;;;16.10;;
12348;SDS011;5974;42.710;27.258;2023-03-24T06:44:47;17.33;;;15.53;;
12348;SDS011;5974;42.710;27.258;2023-03-24T06:47:17;18.70;;;14.87;;
12348;SDS011;5974;42.710;27.258;2023-03-24T06:49:44;24.30;;;14.60;;
12348;SDS011;5974;42.710;27.258;2023-03-24T06:52:10;18.17;;;16.17;;
12348;SDS011;5974;42.710;27.258;2023-03-24T06:54:37;17.20;;;15.40;;
12348;SDS011;5974;42.710;27.258;2023-03-24T06:57:04;18.07;;;15.03;;
12348;SDS011;5974;42.710;27.258;2023-03-24T06:59:32;17.53;;;15.73;;
12348;SDS011;5974;42.710;27.258;2023-03-24T07:01:58;20.40;;;17.10;;
12348;SDS011;5974;42.710;27.258;2023-03-24T07:04:27;17.43;;;15.73;;
12348;SDS011;5974;42.710;27.258;2023-03-24T07:07:00;17.40;;;15.60;;
12348;SDS011;5974;42.710;27.258;2023-03-24T07:09:27;26.50;;;19.70;;
12348;SDS011;5974;42.710;27.258;2023-03-24T07:11:54;17.87;;;15.27;;
12348;SDS011;5974;42.710;27.258;2023-03-24T07:14:21;16.17;;;14.67;;
12348;SDS011;5974;42.710;27.258;2023-03-24T07:16:50;15.07;;;13.57;;
12348;SDS011;5974;42.710;27.258;2023-03-24T07:19:17;14.57;;;12.67;;
12348;SDS011;5974;42.710;27.258;2023-03-24T07:21:46;23.07;;;13.73;;
12348;SDS011;5974;42.710;27.258;2023-03-24T07:24:14;17.90;;;14.83;;
12348;SDS011;5974;42.710;27.258;2023-03-24T07:26:41;13.77;;;12.37;;
12348;SDS011;5974;42.710;27.258;2023-03-24T07:29:08;14.17;;;12.77;;
12348;SDS011;5974;42.710;27.258;2023-03-24T07:31:35;14.50;;;12.90;;
12348;SDS011;5974;42.710;27.258;2023-03-24T07:34:03;13.27;;;11.87;;
12348;SDS011;5974;42.710;27.258;2023-03-24T07:36:30;13.07;;;11.73;;
12348;SDS011;5974;42.710;27.258;2023-03-24T07:38:59;14.40;;;12.90;;
12348;SDS011;5974;42.710;27.258;2023-03-24T07:41:26;14.57;;;12.03;;
12348;SDS011;5974;42.710;27.258;2023-03-24T07:43:53;13.43;;;12.03;;
12348;SDS011;5974;42.710;27.258;2023-03-24T07:46:20;12.80;;;11.60;;
12348;SDS011;5974;42.710;27.258;2023-03-24T07:48:47;13.13;;;11.83;;
12348;SDS011;5974;42.710;27.258;2023-03-24T07:51:14;13.00;;;11.70;;
12348;SDS011;5974;42.710;27.258;2023-03-24T07:53:42;13.77;;;12.43;;
12348;SDS011;5974;42.710;27.258;2023-03-24T07:56:11;14.63;;;13.13;;
12348;SDS011;5974;42.710;27.258;2023-03-24T07:58:37;15.93;;;12.80;;
12348;SDS011;5974;42.710;27.258;2023-03-24T08:01:05;16.47;;;13.63;;
12348;SDS011;5974;42.710;27.258;2023-03-24T08:03:33;13.23;;;11.57;;
12348;SDS011;5974;42.710;27.258;2023-03-24T08:06:00;13.93;;;12.47;;
12348;SDS011;5974;42.710;27.258;2023-03-24T08:08:27;12.37;;;11.17;;
12348;SDS011;5974;42.710;27.258;2023-03-24T08:10:55;13.37;;;11.97;;
12348;SDS011;5974;42.710;27.258;2023-03-24T08:13:23;14.23;;;11.80;;
12348;SDS011;5974;42.710;27.258;2023-03-24T08:15:50;13.43;;;12.03;;
12348;SDS011;5974;42.710;27.258;2023-03-24T08:18:18;12.77;;;11.43;;
12348;SDS011;5974;42.710;27.258;2023-03-24T08:20:45;12.90;;;11.60;;
12348;SDS011;5974;42.710;27.258;2023-03-24T08:23:12;13.23;;;12.00;;
12348;SDS011;5974;42.710;27.258;2023-03-24T08:25:40;12.87;;;11.63;;
12348;SDS011;5974;42.710;27.258;2023-03-24T08:28:07;15.33;;;12.60;;
12348;SDS011;5974;42.710;27.258;2023-03-24T08:30:35;13.40;;;12.03;;
12348;SDS011;5974;42.710;27.258;2023-03-24T08:33:02;14.33;;;13.00;;
12348;SDS011;5974;42.710;27.258;2023-03-24T08:35:30;13.43;;;12.13;;
12348;SDS011;5974;42.710;27.258;2023-03-24T08:37:59;13.53;;;12.13;;
12348;SDS011;5974;42.710;27.258;2023-03-24T08:40:27;15.83;;;12.53;;
12348;SDS011;5974;42.710;27.258;2023-03-24T08:42:56;15.80;;;13.73;;
12348;SDS011;5974;42.710;27.258;2023-03-24T08:45:25;19.60;;;16.53;;
12348;SDS011;5974;42.710;27.258;2023-03-24T08:47:56;14.77;;;13.27;;
12348;SDS011;5974;42.710;27.258;2023-03-24T08:50:26;14.37;;;12.97;;
12348;SDS011;5974;42.710;27.258;2023-03-24T08:52:55;16.73;;;14.63;;
12348;SDS011;5974;42.710;27.258;2023-03-24T08:55:23;14.50;;;13.20;;
12348;SDS011;5974;42.710;27.258;2023-03-24T08:57:50;15.43;;;13.90;;
12348;SDS011;5974;42.710;27.258;2023-03-24T09:00:18;13.40;;;12.10;;
12348;SDS011;5974;42.710;27.258;2023-03-24T09:02:47;13.10;;;11.90;;
12348;SDS011;5974;42.710;27.258;2023-03-24T09:05:17;14.07;;;12.37;;
12348;SDS011;5974;42.710;27.258;2023-03-24T09:07:45;17.37;;;15.73;;
12348;SDS011;5974;42.710;27.258;2023-03-24T09:10:13;16.47;;;14.93;;
12348;SDS011;5974;42.710;27.258;2023-03-24T09:12:42;13.17;;;11.93;;
12348;SDS011;5974;42.710;27.258;2023-03-24T09:15:10;22.17;;;18.53;;
12348;SDS011;5974;42.710;27.258;2023-03-24T09:17:38;16.40;;;14.70;;
12348;SDS011;5974;42.710;27.258;2023-03-24T09:20:06;18.33;;;15.60;;
12348;SDS011;5974;42.710;27.258;2023-03-24T09:22:37;13.07;;;11.87;;
12348;SDS011;5974;42.710;27.258;2023-03-24T09:25:04;14.50;;;12.03;;
12348;SDS011;5974;42.710;27.258;2023-03-24T09:27:32;12.57;;;11.37;;
12348;SDS011;5974;42.710;27.258;2023-03-24T09:29:59;14.13;;;12.80;;
12348;SDS011;5974;42.710;27.258;2023-03-24T09:32:26;14.00;;;12.53;;
12348;SDS011;5974;42.710;27.258;2023-03-24T09:34:53;12.80;;;11.60;;
12348;SDS011;5974;42.710;27.258;2023-03-24T09:37:20;13.33;;;12.03;;
12348;SDS011;5974;42.710;27.258;2023-03-24T09:39:48;14.23;;;12.47;;
12348;SDS011;5974;42.710;27.258;2023-03-24T09:42:17;13.37;;;12.17;;
12348;SDS011;5974;42.710;27.258;2023-03-24T09:44:47;13.10;;;11.87;;
12348;SDS011;5974;42.710;27.258;2023-03-24T09:47:23;13.40;;;12.20;;
12348;SDS011;5974;42.710;27.258;2023-03-24T09:49:53;12.37;;;11.07;;
12348;SDS011;5974;42.710;27.258;2023-03-24T09:52:23;13.10;;;11.90;;
12348;SDS011;5974;42.710;27.258;2023-03-24T09:54:56;14.00;;;12.70;;
12348;SDS011;5974;42.710;27.258;2023-03-24T09:57:26;13.60;;;11.90;;
12348;SDS011;5974;42.710;27.258;2023-03-24T09:59:56;13.17;;;11.87;;
12348;SDS011;5974;42.710;27.258;2023-03-24T10:02:22;12.67;;;11.47;;
12348;SDS011;5974;42.710;27.258;2023-03-24T10:04:53;13.63;;;12.33;;
12348;SDS011;5974;42.710;27.258;2023-03-24T10:07:21;13.33;;;12.13;;
12348;SDS011;5974;42.710;27.258;2023-03-24T10:09:55;12.37;;;11.27;;
12348;SDS011;5974;42.710;27.258;2023-03-24T10:12:28;12.40;;;11.30;;
12348;SDS011;5974;42.710;27.258;2023-03-24T10:15:06;12.23;;;11.07;;
12348;SDS011;5974;42.710;27.258;2023-03-24T10:17:42;12.60;;;11.40;;
12348;SDS011;5974;42.710;27.258;2023-03-24T10:20:20;11.47;;;9.87;;
12348;SDS011;5974;42.710;27.258;2023-03-24T10:22:59;11.43;;;10.23;;
12348;SDS011;5974;42.710;27.258;2023-03-24T10:25:37;12.23;;;11.07;;
12348;SDS011;5974;42.710;27.258;2023-03-24T10:28:13;11.40;;;10.40;;
12348;SDS011;5974;42.710;27.258;2023-03-24T10:30:44;11.17;;;10.07;;
12348;SDS011;5974;42.710;27.258;2023-03-24T10:33:13;10.50;;;9.60;;
12348;SDS011;5974;42.710;27.258;2023-03-24T10:35:42;11.80;;;10.80;;
12348;SDS011;5974;42.710;27.258;2023-03-24T10:38:16;10.27;;;9.33;;
12348;SDS011;5974;42.710;27.258;2023-03-24T10:40:46;10.47;;;9.47;;
12348;SDS011;5974;42.710;27.258;2023-03-24T10:43:15;9.73;;;8.80;;
12348;SDS011;5974;42.710;27.258;2023-03-24T10:45:44;11.37;;;10.27;;
12348;SDS011;5974;42.710;27.258;2023-03-24T10:48:15;12.13;;;9.40;;
12348;SDS011;5974;42.710;27.258;2023-03-24T10:51:00;9.73;;;8.83;;
12348;SDS011;5974;42.710;27.258;2023-03-24T10:53:27;10.13;;;9.23;;
12348;SDS011;5974;42.710;27.258;2023-03-24T10:55:55;10.33;;;9.33;;
12348;SDS011;5974;42.710;27.258;2023-03-24T10:58:35;10.43;;;9.37;;
12348;SDS011;5974;42.710;27.258;2023-03-24T11:01:06;10.60;;;9.30;;
12348;SDS011;5974;42.710;27.258;2023-03-24T11:03:46;10.00;;;9.10;;
12348;SDS011;5974;42.710;27.258;2023-03-24T11:06:15;10.17;;;9.13;;
12348;SDS011;5974;42.710;27.258;2023-03-24T11:08:43;9.77;;;8.77;;
12348;SDS011;5974;42.710;27.258;2023-03-24T11:11:14;9.33;;;8.50;;
12348;SDS011;5974;42.710;27.258;2023-03-24T11:13:58;9.37;;;8.40;;
12348;SDS011;5974;42.710;27.258;2023-03-24T11:16:27;8.60;;;7.77;;
12348;SDS011;5974;42.710;27.258;2023-03-24T11:18:57;8.57;;;7.77;;
12348;SDS011;5974;42.710;27.258;2023-03-24T11:21:25;7.67;;;6.93;;
12348;SDS011;5974;42.710;27.258;2023-03-24T11:23:55;6.63;;;6.03;;
12348;SDS011;5974;42.710;27.258;2023-03-24T11:26:27;8.67;;;7.87;;
12348;SDS011;5974;42.710;27.258;2023-03-24T11:28:59;8.40;;;7.60;;
12348;SDS011;5974;42.710;27.258;2023-03-24T11:31:29;8.87;;;7.67;;
12348;SDS011;5974;42.710;27.258;2023-03-24T11:33:58;8.00;;;7.20;;
12348;SDS011;5974;42.710;27.258;2023-03-24T11:36:43;10.57;;;7.77;;
12348;SDS011;5974;42.710;27.258;2023-03-24T11:39:15;11.53;;;8.80;;
12348;SDS011;5974;42.710;27.258;2023-03-24T11:41:49;9.20;;;8.30;;
12348;SDS011;5974;42.710;27.258;2023-03-24T11:44:25;9.20;;;8.27;;
12348;SDS011;5974;42.710;27.258;2023-03-24T11:46:53;9.07;;;8.20;;
12348;SDS011;5974;42.710;27.258;2023-03-24T11:49:24;7.83;;;7.03;;
12348;SDS011;5974;42.710;27.258;2023-03-24T11:51:54;8.03;;;6.80;;
12348;SDS011;5974;42.710;27.258;2023-03-24T11:54:22;8.13;;;7.20;;
12348;SDS011;5974;42.710;27.258;2023-03-24T11:56:53;7.57;;;6.87;;
12348;SDS011;5974;42.710;27.258;2023-03-24T11:59:39;7.77;;;7.07;;
12348;SDS011;5974;42.710;27.258;2023-03-24T12:02:17;7.43;;;6.83;;
12348;SDS011;5974;42.710;27.258;2023-03-24T12:04:55;8.80;;;8.00;;
12348;SDS011;5974;42.710;27.258;2023-03-24T12:07:32;6.93;;;6.33;;
12348;SDS011;5974;42.710;27.258;2023-03-24T12:10:30;7.53;;;6.77;;
12348;SDS011;5974;42.710;27.258;2023-03-24T12:13:08;8.20;;;7.40;;
12348;SDS011;5974;42.710;27.258;2023-03-24T12:15:45;7.30;;;6.70;;
12348;SDS011;5974;42.710;27.258;2023-03-24T12:18:26;7.63;;;6.93;;
12348;SDS011;5974;42.710;27.258;2023-03-24T12:21:05;7.73;;;6.83;;
12348;SDS011;5974;42.710;27.258;2023-03-24T12:23:42;7.50;;;6.83;;
12348;SDS011;5974;42.710;27.258;2023-03-24T12:26:18;7.90;;;7.20;;
12348;SDS011;5974;42.710;27.258;2023-03-24T12:28:54;7.77;;;7.07;;
12348;SDS011;5974;42.710;27.258;2023-03-24T12:31:45;8.53;;;6.73;;
12348;SDS011;5974;42.710;27.258;2023-03-24T12:34:47;6.70;;;6.10;;
12348;SDS011;5974;42.710;27.258;2023-03-24T12:37:26;7.70;;;7.00;;
12348;SDS011;5974;42.710;27.258;2023-03-24T12:40:02;7.77;;;7.10;;
12348;SDS011;5974;42.710;27.258;2023-03-24T12:42:45;8.10;;;7.33;;
12348;SDS011;5974;42.710;27.258;2023-03-24T12:45:16;7.43;;;6.73;;
12348;SDS011;5974;42.710;27.258;2023-03-24T12:51:04;11.70;;;8.60;;
12348;SDS011;5974;42.710;27.258;2023-03-24T12:53:45;7.90;;;7.20;;
12348;SDS011;5974;42.710;27.258;2023-03-24T12:56:25;8.03;;;7.30;;
12348;SDS011;5974;42.710;27.258;2023-03-24T12:58:57;8.50;;;7.73;;
12348;SDS011;5974;42.710;27.258;2023-03-24T13:01:29;7.50;;;6.90;;
12348;SDS011;5974;42.710;27.258;2023-03-24T13:04:03;8.13;;;7.33;;
12348;SDS011;5974;42.710;27.258;2023-03-24T13:06:37;8.83;;;7.40;;
12348;SDS011;5974;42.710;27.258;2023-03-24T13:09:13;8.00;;;7.20;;
12348;SDS011;5974;42.710;27.258;2023-03-24T13:11:51;8.20;;;7.50;;
12348;SDS011;5974;42.710;27.258;2023-03-24T13:14:24;7.93;;;7.30;;
12348;SDS011;5974;42.710;27.258;2023-03-24T13:16:57;7.43;;;6.73;;
12348;SDS011;5974;42.710;27.258;2023-03-24T13:19:30;8.33;;;7.43;;
12348;SDS011;5974;42.710;27.258;2023-03-24T13:22:01;7.67;;;6.97;;
12348;SDS011;5974;42.710;27.258;2023-03-24T13:24:32;8.13;;;7.43;;
12348;SDS011;5974;42.710;27.258;2023-03-24T13:27:04;9.77;;;8.77;;
12348;SDS011;5974;42.710;27.258;2023-03-24T13:29:51;9.67;;;8.80;;
12348;SDS011;5974;42.710;27.258;2023-03-24T13:32:51;7.90;;;6.87;;
12348;SDS011;5974;42.710;27.258;2023-03-24T13:35:26;7.30;;;6.70;;
12348;SDS011;5974;42.710;27.258;2023-03-24T13:38:07;8.20;;;7.50;;
12348;SDS011;5974;42.710;27.258;2023-03-24T13:40:42;8.20;;;7.50;;
12348;SDS011;5974;42.710;27.258;2023-03-24T13:43:12;7.13;;;6.53;;
12348;SDS011;5974;42.710;27.258;2023-03-24T13:45:45;10.83;;;7.23;;
12348;SDS011;5974;42.710;27.258;2023-03-24T13:48:16;8.20;;;7.37;;
12348;SDS011;5974;42.710;27.258;2023-03-24T13:50:53;8.93;;;8.03;;
12348;SDS011;5974;42.710;27.258;2023-03-24T13:53:31;9.80;;;8.53;;
12348;SDS011;5974;42.710;27.258;2023-03-24T13:56:01;9.47;;;8.50;;
12348;SDS011;5974;42.710;27.258;2023-03-24T13:58:44;9.77;;;8.43;;
12348;SDS011;5974;42.710;27.258;2023-03-24T14:01:14;8.90;;;8.00;;
12348;SDS011;5974;42.710;27.258;2023-03-24T14:03:44;9.77;;;8.87;;
12348;SDS011;5974;42.710;27.258;2023-03-24T14:06:14;9.40;;;8.50;;
12348;SDS011;5974;42.710;27.258;2023-03-24T14:08:53;10.00;;;8.47;;
12348;SDS011;5974;42.710;27.258;2023-03-24T14:11:42;9.63;;;8.73;;
12348;SDS011;5974;42.710;27.258;2023-03-24T14:14:17;8.67;;;7.87;;
12348;SDS011;5974;42.710;27.258;2023-03-24T14:17:01;10.67;;;8.00;;
12348;SDS011;5974;42.710;27.258;2023-03-24T14:19:37;8.90;;;8.03;;
12348;SDS011;5974;42.710;27.258;2023-03-24T14:22:08;8.43;;;7.63;;
12348;SDS011;5974;42.710;27.258;2023-03-24T14:24:40;10.80;;;9.70;;
12348;SDS011;5974;42.710;27.258;2023-03-24T14:29:59;10.07;;;8.77;;
12348;SDS011;5974;42.710;27.258;2023-03-24T14:32:35;11.13;;;8.00;;
12348;SDS011;5974;42.710;27.258;2023-03-24T14:35:04;9.50;;;8.50;;
12348;SDS011;5974;42.710;27.258;2023-03-24T14:37:50;15.80;;;11.23;;
12348;SDS011;5974;42.710;27.258;2023-03-24T14:40:25;8.77;;;7.97;;
12348;SDS011;5974;42.710;27.258;2023-03-24T14:43:02;9.07;;;8.23;;
12348;SDS011;5974;42.710;27.258;2023-03-24T14:48:36;8.97;;;8.07;;
12348;SDS011;5974;42.710;27.258;2023-03-24T14:51:11;8.63;;;7.23;;
12348;SDS011;5974;42.710;27.258;2023-03-24T14:54:00;10.03;;;7.37;;
12348;SDS011;5974;42.710;27.258;2023-03-24T14:56:30;7.67;;;6.97;;
12348;SDS011;5974;42.710;27.258;2023-03-24T14:59:02;7.87;;;6.27;;
12348;SDS011;5974;42.710;27.258;2023-03-24T15:01:34;9.50;;;6.50;;
12348;SDS011;5974;42.710;27.258;2023-03-24T15:04:03;7.03;;;6.33;;